Utopia — 9H8778 — position and weather

sailwx.info

Track history (hours):
 
Tides and Currents Weather Stations Pressure Air Temp Water Temp Dewpoint Dewpoint Depression Visibility Wind Speed Wind Dir Waves Ship Positions

Utopia

Last reported at 2017-Jun-17 15:25 UTC. Time now 2017-Nov-20 13:49 UTC.
Position N 35°57' E 014°27'.
Warning: this ship's position is months out of date.

Length 15 m.

Type: Sailing vessel. MMSI: 256000313.

Date/timePositionNaut miles runAvg speedWind from/ knotsBaromVisibWave heightAir tempDewpointWater temp
2017-Jun-17 15:25N 35°57' E 014°27'3 7.8
2017-Jun-17 14:58N 35°58' E 014°23'1 0.0
2017-Jun-16 15:43N 35°59' E 014°23'2 7.7
2017-Jun-16 15:30N 36°01' E 014°21'1 2.6
2017-Jun-16 15:00N 36°01' E 014°20'0 0.0
2017-Jun-16 14:30N 36°01' E 014°20'0 0.0
2017-Jun-16 13:24N 36°01' E 014°20'0 0.0
2017-Jun-16 13:00N 36°01' E 014°20'0 0.0
2017-Jun-16 12:21N 36°01' E 014°20'0 0.0
2017-Jun-16 12:00N 36°01' E 014°20'0 0.0
2017-Jun-16 11:30N 36°01' E 014°20'0 0.0
2017-Jun-16 10:57N 36°01' E 014°20'0 0.0
2017-Jun-16 10:30N 36°01' E 014°20'0 0.0
2017-Jun-16 10:00N 36°01' E 014°20'0 0.0
2017-Jun-16 09:30N 36°01' E 014°20'0 0.0
2017-Jun-16 09:00N 36°01' E 014°20'0 0.0
2017-Jun-16 08:27N 36°01' E 014°20'0 0.0
2017-Jun-16 08:00N 36°01' E 014°20'0 0.0
2017-Jun-16 07:31N 36°01' E 014°20'0 0.0
2017-Jun-16 06:36N 36°01' E 014°20'0 0.0
2017-Jun-16 06:25N 36°01' E 014°20'0 0.0
2017-Jun-16 06:00N 36°01' E 014°20'0 0.0
2017-Jun-16 05:10N 36°01' E 014°20'0 0.0
2017-Jun-16 04:58N 36°01' E 014°20'0 0.0
2017-Jun-16 04:31N 36°01' E 014°20'0 0.0
2017-Jun-16 03:58N 36°01' E 014°20'0 0.0
2017-Jun-16 03:28N 36°01' E 014°20'0 0.0
2017-Jun-16 02:49N 36°01' E 014°20'0 0.0
2017-Jun-16 02:25N 36°01' E 014°20'0 0.0
2017-Jun-16 02:01N 36°01' E 014°20'0 0.0
2017-Jun-16 01:28N 36°01' E 014°20'0 0.0
2017-Jun-16 00:58N 36°01' E 014°20'0 0.0
2017-Jun-16 00:28N 36°01' E 014°20'0 0.0
2017-Jun-15 23:55N 36°01' E 014°20'0 0.0
2017-Jun-15 23:28N 36°01' E 014°20'0 0.0
2017-Jun-15 22:55N 36°01' E 014°20'0 0.0
2017-Jun-15 22:28N 36°01' E 014°20'0 0.0
2017-Jun-15 21:58N 36°01' E 014°20'0 0.0
2017-Jun-15 21:16N 36°01' E 014°20'0 0.0
2017-Jun-15 20:55N 36°01' E 014°20'0 0.0
2017-Jun-15 20:28N 36°01' E 014°20'0 0.0
2017-Jun-15 19:55N 36°01' E 014°20'0 0.0
2017-Jun-15 19:22N 36°01' E 014°20'0 0.0
2017-Jun-15 18:46N 36°01' E 014°20'0 0.0
2017-Jun-15 18:28N 36°01' E 014°20'0 0.0
2017-Jun-15 17:52N 36°01' E 014°20'0 0.0
2017-Jun-15 17:25N 36°01' E 014°20'0 0.0
2017-Jun-15 16:55N 36°01' E 014°20'0 0.0
2017-Jun-15 16:28N 36°01' E 014°20'0 0.0
2017-Jun-15 15:55N 36°01' E 014°20'0 0.0
2017-Jun-15 15:25N 36°01' E 014°20'0 0.0
2017-Jun-15 14:55N 36°01' E 014°20'0 0.0
2017-Jun-15 13:58N 36°01' E 014°20'0 0.0
2017-Jun-15 13:28N 36°01' E 014°20'0 0.0
2017-Jun-15 12:58N 36°01' E 014°20'0 0.0
2017-Jun-15 12:28N 36°01' E 014°20'0 0.0
2017-Jun-15 11:49N 36°01' E 014°20'0 0.0
2017-Jun-15 11:25N 36°01' E 014°20'0 0.0
2017-Jun-15 10:58N 36°01' E 014°20'0 0.0
2017-Jun-15 10:25N 36°01' E 014°20'0 0.0
2017-Jun-15 09:58N 36°01' E 014°20'0 0.0
2017-Jun-15 09:22N 36°01' E 014°20'0 0.0
2017-Jun-15 08:55N 36°01' E 014°20'0 0.0
2017-Jun-15 08:25N 36°01' E 014°20'0 0.0
2017-Jun-15 07:57N 36°01' E 014°20'  
2017-Jun-11 16:31N 35°59' E 014°25'0 7.9
2017-Jun-11 16:29N 35°59' E 014°25'4 7.7
2017-Jun-11 16:00N 36°01' E 014°21'1 1.8
2017-Jun-11 15:23N 36°01' E 014°20'0 0.0
2017-Jun-11 14:56N 36°01' E 014°20'0 0.0
2017-Jun-11 14:29N 36°01' E 014°20'0 0.0
2017-Jun-11 13:29N 36°01' E 014°20'0 0.0
2017-Jun-11 12:59N 36°01' E 014°20'0 0.0
2017-Jun-11 12:29N 36°01' E 014°20'0 0.0
2017-Jun-11 11:59N 36°01' E 014°20'0 0.0
2017-Jun-11 11:29N 36°01' E 014°20'0 0.0
2017-Jun-11 10:53N 36°01' E 014°20'0 0.0
2017-Jun-11 10:26N 36°01' E 014°20'0 0.0
2017-Jun-11 09:59N 36°01' E 014°20'0 0.0
2017-Jun-11 09:26N 36°01' E 014°20'0 0.0
2017-Jun-11 08:59N 36°01' E 014°20'0 0.0
2017-Jun-11 08:29N 36°01' E 014°20'0 0.0
2017-Jun-11 07:59N 36°01' E 014°20'0 0.0
2017-Jun-11 07:23N 36°01' E 014°20'0 0.0
2017-Jun-11 06:59N 36°01' E 014°20'0 0.0
2017-Jun-11 06:29N 36°01' E 014°20'0 0.0
2017-Jun-11 05:59N 36°01' E 014°20'0 0.0
2017-Jun-11 05:29N 36°01' E 014°20'0 0.0
2017-Jun-11 04:59N 36°01' E 014°20'0 0.0
2017-Jun-11 04:29N 36°01' E 014°20'0 0.0
2017-Jun-11 03:59N 36°01' E 014°20'0 0.0
2017-Jun-11 03:23N 36°01' E 014°20'0 0.0
2017-Jun-11 02:59N 36°01' E 014°20'0 0.0
2017-Jun-11 02:26N 36°01' E 014°20'0 0.0
2017-Jun-11 01:59N 36°01' E 014°20'0 0.0
2017-Jun-11 01:29N 36°01' E 014°20'0 0.0
2017-Jun-11 00:53N 36°01' E 014°20'0 0.0
2017-Jun-11 00:29N 36°01' E 014°20'0 0.0
2017-Jun-10 23:59N 36°01' E 014°20'0 0.0
2017-Jun-10 23:29N 36°01' E 014°20'0 0.0
2017-Jun-10 22:59N 36°01' E 014°20'0 0.0
2017-Jun-10 22:29N 36°01' E 014°20'0 0.0
2017-Jun-10 21:59N 36°01' E 014°20'0 0.0
2017-Jun-10 21:29N 36°01' E 014°20'0 0.0
2017-Jun-10 20:59N 36°01' E 014°20'0 0.0
2017-Jun-10 20:26N 36°01' E 014°20'0 0.0
2017-Jun-10 19:59N 36°01' E 014°20'0 0.0
2017-Jun-10 19:26N 36°01' E 014°20'0 0.0
2017-Jun-10 18:59N 36°01' E 014°20'0 0.0
2017-Jun-10 18:29N 36°01' E 014°20'0 0.0
2017-Jun-10 17:59N 36°01' E 014°20'0 0.0
2017-Jun-10 17:29N 36°01' E 014°20'0 0.0
2017-Jun-10 16:59N 36°01' E 014°20'0 0.0
2017-Jun-10 16:29N 36°01' E 014°20'1 1.3
2017-Jun-10 15:59N 36°01' E 014°21'3 0.1
2017-Jun-09 15:03N 35°59' E 014°22'  
Track history (hours):
 
Tides and Currents Weather Stations Pressure Air Temp Water Temp Dewpoint Dewpoint Depression Visibility Wind Speed Wind Dir Waves Ship Positions

Utopia

Last reported at 2017-Jun-17 15:25 UTC. Time now 2017-Nov-20 13:49 UTC.
Position N 35°57' E 014°27'.
Warning: this ship's position is months out of date.

Length 15 m.

Type: Sailing vessel. MMSI: 256000313.

Date/timePositionNaut miles runAvg speedWind from/ knotsBaromVisibWave heightAir tempDewpointWater temp
2017-Jun-17 15:25N 35°57' E 014°27'3 7.8
2017-Jun-17 14:58N 35°58' E 014°23'1 0.0
2017-Jun-16 15:43N 35°59' E 014°23'2 7.7
2017-Jun-16 15:30N 36°01' E 014°21'1 2.6
2017-Jun-16 15:00N 36°01' E 014°20'0 0.0
2017-Jun-16 14:30N 36°01' E 014°20'0 0.0
2017-Jun-16 13:24N 36°01' E 014°20'0 0.0
2017-Jun-16 13:00N 36°01' E 014°20'0 0.0
2017-Jun-16 12:21N 36°01' E 014°20'0 0.0
2017-Jun-16 12:00N 36°01' E 014°20'0 0.0
2017-Jun-16 11:30N 36°01' E 014°20'0 0.0
2017-Jun-16 10:57N 36°01' E 014°20'0 0.0
2017-Jun-16 10:30N 36°01' E 014°20'0 0.0
2017-Jun-16 10:00N 36°01' E 014°20'0 0.0
2017-Jun-16 09:30N 36°01' E 014°20'0 0.0
2017-Jun-16 09:00N 36°01' E 014°20'0 0.0
2017-Jun-16 08:27N 36°01' E 014°20'0 0.0
2017-Jun-16 08:00N 36°01' E 014°20'0 0.0
2017-Jun-16 07:31N 36°01' E 014°20'0 0.0
2017-Jun-16 06:36N 36°01' E 014°20'0 0.0
2017-Jun-16 06:25N 36°01' E 014°20'0 0.0
2017-Jun-16 06:00N 36°01' E 014°20'0 0.0
2017-Jun-16 05:10N 36°01' E 014°20'0 0.0
2017-Jun-16 04:58N 36°01' E 014°20'0 0.0
2017-Jun-16 04:31N 36°01' E 014°20'0 0.0
2017-Jun-16 03:58N 36°01' E 014°20'0 0.0
2017-Jun-16 03:28N 36°01' E 014°20'0 0.0
2017-Jun-16 02:49N 36°01' E 014°20'0 0.0
2017-Jun-16 02:25N 36°01' E 014°20'0 0.0
2017-Jun-16 02:01N 36°01' E 014°20'0 0.0
2017-Jun-16 01:28N 36°01' E 014°20'0 0.0
2017-Jun-16 00:58N 36°01' E 014°20'0 0.0
2017-Jun-16 00:28N 36°01' E 014°20'0 0.0
2017-Jun-15 23:55N 36°01' E 014°20'0 0.0
2017-Jun-15 23:28N 36°01' E 014°20'0 0.0
2017-Jun-15 22:55N 36°01' E 014°20'0 0.0
2017-Jun-15 22:28N 36°01' E 014°20'0 0.0
2017-Jun-15 21:58N 36°01' E 014°20'0 0.0
2017-Jun-15 21:16N 36°01' E 014°20'0 0.0
2017-Jun-15 20:55N 36°01' E 014°20'0 0.0
2017-Jun-15 20:28N 36°01' E 014°20'0 0.0
2017-Jun-15 19:55N 36°01' E 014°20'0 0.0
2017-Jun-15 19:22N 36°01' E 014°20'0 0.0
2017-Jun-15 18:46N 36°01' E 014°20'0 0.0
2017-Jun-15 18:28N 36°01' E 014°20'0 0.0
2017-Jun-15 17:52N 36°01' E 014°20'0 0.0
2017-Jun-15 17:25N 36°01' E 014°20'0 0.0
2017-Jun-15 16:55N 36°01' E 014°20'0 0.0
2017-Jun-15 16:28N 36°01' E 014°20'0 0.0
2017-Jun-15 15:55N 36°01' E 014°20'0 0.0
2017-Jun-15 15:25N 36°01' E 014°20'0 0.0
2017-Jun-15 14:55N 36°01' E 014°20'0 0.0
2017-Jun-15 13:58N 36°01' E 014°20'0 0.0
2017-Jun-15 13:28N 36°01' E 014°20'0 0.0
2017-Jun-15 12:58N 36°01' E 014°20'0 0.0
2017-Jun-15 12:28N 36°01' E 014°20'0 0.0
2017-Jun-15 11:49N 36°01' E 014°20'0 0.0
2017-Jun-15 11:25N 36°01' E 014°20'0 0.0
2017-Jun-15 10:58N 36°01' E 014°20'0 0.0
2017-Jun-15 10:25N 36°01' E 014°20'0 0.0
2017-Jun-15 09:58N 36°01' E 014°20'0 0.0
2017-Jun-15 09:22N 36°01' E 014°20'0 0.0
2017-Jun-15 08:55N 36°01' E 014°20'0 0.0
2017-Jun-15 08:25N 36°01' E 014°20'0 0.0
2017-Jun-15 07:57N 36°01' E 014°20'  
2017-Jun-11 16:31N 35°59' E 014°25'0 7.9
2017-Jun-11 16:29N 35°59' E 014°25'4 7.7
2017-Jun-11 16:00N 36°01' E 014°21'1 1.8
2017-Jun-11 15:23N 36°01' E 014°20'0 0.0
2017-Jun-11 14:56N 36°01' E 014°20'0 0.0
2017-Jun-11 14:29N 36°01' E 014°20'0 0.0
2017-Jun-11 13:29N 36°01' E 014°20'0 0.0
2017-Jun-11 12:59N 36°01' E 014°20'0 0.0
2017-Jun-11 12:29N 36°01' E 014°20'0 0.0
2017-Jun-11 11:59N 36°01' E 014°20'0 0.0
2017-Jun-11 11:29N 36°01' E 014°20'0 0.0
2017-Jun-11 10:53N 36°01' E 014°20'0 0.0
2017-Jun-11 10:26N 36°01' E 014°20'0 0.0
2017-Jun-11 09:59N 36°01' E 014°20'0 0.0
2017-Jun-11 09:26N 36°01' E 014°20'0 0.0
2017-Jun-11 08:59N 36°01' E 014°20'0 0.0
2017-Jun-11 08:29N 36°01' E 014°20'0 0.0
2017-Jun-11 07:59N 36°01' E 014°20'0 0.0
2017-Jun-11 07:23N 36°01' E 014°20'0 0.0
2017-Jun-11 06:59N 36°01' E 014°20'0 0.0
2017-Jun-11 06:29N 36°01' E 014°20'0 0.0
2017-Jun-11 05:59N 36°01' E 014°20'0 0.0
2017-Jun-11 05:29N 36°01' E 014°20'0 0.0
2017-Jun-11 04:59N 36°01' E 014°20'0 0.0
2017-Jun-11 04:29N 36°01' E 014°20'0 0.0
2017-Jun-11 03:59N 36°01' E 014°20'0 0.0
2017-Jun-11 03:23N 36°01' E 014°20'0 0.0
2017-Jun-11 02:59N 36°01' E 014°20'0 0.0
2017-Jun-11 02:26N 36°01' E 014°20'0 0.0
2017-Jun-11 01:59N 36°01' E 014°20'0 0.0
2017-Jun-11 01:29N 36°01' E 014°20'0 0.0
2017-Jun-11 00:53N 36°01' E 014°20'0 0.0
2017-Jun-11 00:29N 36°01' E 014°20'0 0.0
2017-Jun-10 23:59N 36°01' E 014°20'0 0.0
2017-Jun-10 23:29N 36°01' E 014°20'0 0.0
2017-Jun-10 22:59N 36°01' E 014°20'0 0.0
2017-Jun-10 22:29N 36°01' E 014°20'0 0.0
2017-Jun-10 21:59N 36°01' E 014°20'0 0.0
2017-Jun-10 21:29N 36°01' E 014°20'0 0.0
2017-Jun-10 20:59N 36°01' E 014°20'0 0.0
2017-Jun-10 20:26N 36°01' E 014°20'0 0.0
2017-Jun-10 19:59N 36°01' E 014°20'0 0.0
2017-Jun-10 19:26N 36°01' E 014°20'0 0.0
2017-Jun-10 18:59N 36°01' E 014°20'0 0.0
2017-Jun-10 18:29N 36°01' E 014°20'0 0.0
2017-Jun-10 17:59N 36°01' E 014°20'0 0.0
2017-Jun-10 17:29N 36°01' E 014°20'0 0.0
2017-Jun-10 16:59N 36°01' E 014°20'0 0.0
2017-Jun-10 16:29N 36°01' E 014°20'1 1.3
2017-Jun-10 15:59N 36°01' E 014°21'3 0.1
2017-Jun-09 15:03N 35°59' E 014°22'  

Dump ship's entire track history